sensor_id;sensor_type;location;lat;lon;timestamp;P1;durP1;ratioP1;P2;durP2;ratioP2
34765;SDS011;20984;43.508;1.504;2023-12-22T00:01:07;28.42;;;6.63;;
34765;SDS011;20984;43.508;1.504;2023-12-22T00:03:32;27.40;;;6.32;;
34765;SDS011;20984;43.508;1.504;2023-12-22T00:05:58;24.25;;;6.13;;
34765;SDS011;20984;43.508;1.504;2023-12-22T00:08:23;27.70;;;6.20;;
34765;SDS011;20984;43.508;1.504;2023-12-22T00:10:49;38.45;;;8.00;;
34765;SDS011;20984;43.508;1.504;2023-12-22T00:13:15;41.65;;;9.55;;
34765;SDS011;20984;43.508;1.504;2023-12-22T00:15:41;35.63;;;7.80;;
34765;SDS011;20984;43.508;1.504;2023-12-22T00:18:09;20.65;;;6.53;;
34765;SDS011;20984;43.508;1.504;2023-12-22T00:20:35;30.40;;;7.03;;
34765;SDS011;20984;43.508;1.504;2023-12-22T00:23:01;35.97;;;8.48;;
34765;SDS011;20984;43.508;1.504;2023-12-22T00:25:26;33.78;;;7.22;;
34765;SDS011;20984;43.508;1.504;2023-12-22T00:27:52;41.33;;;8.98;;
34765;SDS011;20984;43.508;1.504;2023-12-22T00:30:18;17.85;;;5.47;;
34765;SDS011;20984;43.508;1.504;2023-12-22T00:32:43;37.97;;;7.22;;
34765;SDS011;20984;43.508;1.504;2023-12-22T00:35:09;28.58;;;8.50;;
34765;SDS011;20984;43.508;1.504;2023-12-22T00:37:35;39.47;;;7.75;;
34765;SDS011;20984;43.508;1.504;2023-12-22T00:40:01;29.02;;;7.40;;
34765;SDS011;20984;43.508;1.504;2023-12-22T00:42:29;51.47;;;12.07;;
34765;SDS011;20984;43.508;1.504;2023-12-22T00:44:55;33.47;;;7.15;;
34765;SDS011;20984;43.508;1.504;2023-12-22T00:47:20;29.83;;;6.47;;
34765;SDS011;20984;43.508;1.504;2023-12-22T00:49:46;23.25;;;6.75;;
34765;SDS011;20984;43.508;1.504;2023-12-22T00:52:12;18.98;;;4.20;;
34765;SDS011;20984;43.508;1.504;2023-12-22T00:54:37;34.58;;;8.90;;
34765;SDS011;20984;43.508;1.504;2023-12-22T00:57:03;21.75;;;6.43;;
34765;SDS011;20984;43.508;1.504;2023-12-22T00:59:29;28.58;;;5.55;;
34765;SDS011;20984;43.508;1.504;2023-12-22T01:01:55;26.92;;;5.88;;
34765;SDS011;20984;43.508;1.504;2023-12-22T01:04:20;26.77;;;6.70;;
34765;SDS011;20984;43.508;1.504;2023-12-22T01:06:46;25.00;;;6.25;;
34765;SDS011;20984;43.508;1.504;2023-12-22T01:09:11;35.35;;;8.88;;
34765;SDS011;20984;43.508;1.504;2023-12-22T01:11:37;24.73;;;5.30;;
34765;SDS011;20984;43.508;1.504;2023-12-22T01:14:03;36.20;;;8.60;;
34765;SDS011;20984;43.508;1.504;2023-12-22T01:16:28;26.90;;;7.07;;
34765;SDS011;20984;43.508;1.504;2023-12-22T01:18:54;23.73;;;6.38;;
34765;SDS011;20984;43.508;1.504;2023-12-22T01:21:20;20.73;;;6.07;;
34765;SDS011;20984;43.508;1.504;2023-12-22T01:23:45;21.65;;;5.88;;
34765;SDS011;20984;43.508;1.504;2023-12-22T01:26:11;23.38;;;5.32;;
34765;SDS011;20984;43.508;1.504;2023-12-22T01:28:37;26.00;;;7.07;;
34765;SDS011;20984;43.508;1.504;2023-12-22T01:31:02;23.13;;;5.93;;
34765;SDS011;20984;43.508;1.504;2023-12-22T01:33:28;18.92;;;5.63;;
34765;SDS011;20984;43.508;1.504;2023-12-22T01:35:54;26.88;;;6.13;;
34765;SDS011;20984;43.508;1.504;2023-12-22T01:38:20;16.77;;;4.47;;
34765;SDS011;20984;43.508;1.504;2023-12-22T01:40:46;21.48;;;6.72;;
34765;SDS011;20984;43.508;1.504;2023-12-22T01:43:12;22.90;;;5.82;;
34765;SDS011;20984;43.508;1.504;2023-12-22T01:45:42;22.40;;;6.10;;
34765;SDS011;20984;43.508;1.504;2023-12-22T01:48:10;24.05;;;5.60;;
34765;SDS011;20984;43.508;1.504;2023-12-22T01:50:36;19.38;;;5.28;;
34765;SDS011;20984;43.508;1.504;2023-12-22T01:53:02;18.27;;;5.03;;
34765;SDS011;20984;43.508;1.504;2023-12-22T01:55:28;24.02;;;6.70;;
34765;SDS011;20984;43.508;1.504;2023-12-22T01:57:54;18.20;;;4.97;;
34765;SDS011;20984;43.508;1.504;2023-12-22T02:00:21;15.80;;;4.60;;
34765;SDS011;20984;43.508;1.504;2023-12-22T02:02:47;20.08;;;5.35;;
34765;SDS011;20984;43.508;1.504;2023-12-22T02:05:15;16.80;;;4.35;;
34765;SDS011;20984;43.508;1.504;2023-12-22T02:07:40;18.70;;;5.32;;
34765;SDS011;20984;43.508;1.504;2023-12-22T02:10:09;20.45;;;4.70;;
34765;SDS011;20984;43.508;1.504;2023-12-22T02:12:38;14.48;;;4.75;;
34765;SDS011;20984;43.508;1.504;2023-12-22T02:15:04;22.23;;;4.70;;
34765;SDS011;20984;43.508;1.504;2023-12-22T02:17:51;18.38;;;4.47;;
34765;SDS011;20984;43.508;1.504;2023-12-22T02:20:28;17.67;;;5.28;;
34765;SDS011;20984;43.508;1.504;2023-12-22T02:22:55;12.73;;;4.00;;
34765;SDS011;20984;43.508;1.504;2023-12-22T02:25:20;11.07;;;3.55;;
34765;SDS011;20984;43.508;1.504;2023-12-22T02:27:50;8.85;;;3.00;;
34765;SDS011;20984;43.508;1.504;2023-12-22T02:30:26;8.67;;;2.83;;
34765;SDS011;20984;43.508;1.504;2023-12-22T02:33:01;8.48;;;2.72;;
34765;SDS011;20984;43.508;1.504;2023-12-22T02:35:30;7.28;;;2.83;;
34765;SDS011;20984;43.508;1.504;2023-12-22T02:38:00;13.13;;;3.67;;
34765;SDS011;20984;43.508;1.504;2023-12-22T02:40:28;15.57;;;5.18;;
34765;SDS011;20984;43.508;1.504;2023-12-22T02:42:54;7.63;;;3.22;;
34765;SDS011;20984;43.508;1.504;2023-12-22T02:45:21;15.38;;;3.33;;
34765;SDS011;20984;43.508;1.504;2023-12-22T02:47:46;7.22;;;2.90;;
34765;SDS011;20984;43.508;1.504;2023-12-22T02:50:13;12.93;;;3.92;;
34765;SDS011;20984;43.508;1.504;2023-12-22T02:52:40;9.63;;;3.40;;
34765;SDS011;20984;43.508;1.504;2023-12-22T02:55:06;6.32;;;2.78;;
34765;SDS011;20984;43.508;1.504;2023-12-22T02:57:32;7.97;;;2.75;;
34765;SDS011;20984;43.508;1.504;2023-12-22T02:59:58;6.68;;;3.08;;
34765;SDS011;20984;43.508;1.504;2023-12-22T03:02:23;6.47;;;2.85;;
34765;SDS011;20984;43.508;1.504;2023-12-22T03:04:49;5.45;;;2.45;;
34765;SDS011;20984;43.508;1.504;2023-12-22T03:07:15;5.63;;;2.47;;
34765;SDS011;20984;43.508;1.504;2023-12-22T03:09:43;7.43;;;3.00;;
34765;SDS011;20984;43.508;1.504;2023-12-22T03:12:09;7.82;;;2.95;;
34765;SDS011;20984;43.508;1.504;2023-12-22T03:14:35;8.38;;;3.13;;
34765;SDS011;20984;43.508;1.504;2023-12-22T03:17:02;5.68;;;2.92;;
34765;SDS011;20984;43.508;1.504;2023-12-22T03:19:29;5.80;;;2.30;;
34765;SDS011;20984;43.508;1.504;2023-12-22T03:21:55;3.78;;;2.30;;
34765;SDS011;20984;43.508;1.504;2023-12-22T03:24:21;4.43;;;2.05;;
34765;SDS011;20984;43.508;1.504;2023-12-22T03:26:48;4.15;;;2.40;;
34765;SDS011;20984;43.508;1.504;2023-12-22T03:29:14;9.23;;;2.10;;
34765;SDS011;20984;43.508;1.504;2023-12-22T03:31:40;8.02;;;2.65;;
34765;SDS011;20984;43.508;1.504;2023-12-22T03:34:06;4.82;;;2.35;;
34765;SDS011;20984;43.508;1.504;2023-12-22T03:36:32;2.67;;;1.95;;
34765;SDS011;20984;43.508;1.504;2023-12-22T03:38:57;4.55;;;2.28;;
34765;SDS011;20984;43.508;1.504;2023-12-22T03:41:23;4.65;;;2.20;;
34765;SDS011;20984;43.508;1.504;2023-12-22T03:43:49;5.72;;;2.65;;
34765;SDS011;20984;43.508;1.504;2023-12-22T03:46:14;12.10;;;2.40;;
34765;SDS011;20984;43.508;1.504;2023-12-22T03:48:40;6.95;;;2.30;;
34765;SDS011;20984;43.508;1.504;2023-12-22T03:51:06;10.10;;;2.50;;
34765;SDS011;20984;43.508;1.504;2023-12-22T03:53:31;3.45;;;1.90;;
34765;SDS011;20984;43.508;1.504;2023-12-22T03:55:57;4.90;;;2.47;;
34765;SDS011;20984;43.508;1.504;2023-12-22T03:58:23;6.00;;;2.78;;
34765;SDS011;20984;43.508;1.504;2023-12-22T04:00:49;6.97;;;2.00;;
34765;SDS011;20984;43.508;1.504;2023-12-22T04:03:15;4.43;;;2.40;;
34765;SDS011;20984;43.508;1.504;2023-12-22T04:05:41;7.03;;;2.40;;
34765;SDS011;20984;43.508;1.504;2023-12-22T04:08:06;4.55;;;2.65;;
34765;SDS011;20984;43.508;1.504;2023-12-22T04:10:32;4.18;;;2.00;;
34765;SDS011;20984;43.508;1.504;2023-12-22T04:12:57;5.80;;;2.10;;
34765;SDS011;20984;43.508;1.504;2023-12-22T04:15:23;4.68;;;2.00;;
34765;SDS011;20984;43.508;1.504;2023-12-22T04:17:49;6.60;;;2.42;;
34765;SDS011;20984;43.508;1.504;2023-12-22T04:20:15;5.47;;;2.50;;
34765;SDS011;20984;43.508;1.504;2023-12-22T04:22:40;2.22;;;2.00;;
34765;SDS011;20984;43.508;1.504;2023-12-22T04:25:06;4.30;;;2.10;;
34765;SDS011;20984;43.508;1.504;2023-12-22T04:27:33;2.15;;;1.63;;
34765;SDS011;20984;43.508;1.504;2023-12-22T04:29:59;3.20;;;1.73;;
34765;SDS011;20984;43.508;1.504;2023-12-22T04:32:25;5.05;;;2.00;;
34765;SDS011;20984;43.508;1.504;2023-12-22T04:34:51;3.13;;;1.85;;
34765;SDS011;20984;43.508;1.504;2023-12-22T04:37:16;2.42;;;1.95;;
34765;SDS011;20984;43.508;1.504;2023-12-22T04:39:42;7.95;;;2.00;;
34765;SDS011;20984;43.508;1.504;2023-12-22T04:42:08;2.88;;;2.00;;
34765;SDS011;20984;43.508;1.504;2023-12-22T04:44:33;3.40;;;1.80;;
34765;SDS011;20984;43.508;1.504;2023-12-22T04:46:59;2.72;;;2.47;;
34765;SDS011;20984;43.508;1.504;2023-12-22T04:49:25;3.22;;;1.80;;
34765;SDS011;20984;43.508;1.504;2023-12-22T04:51:50;2.30;;;1.60;;
34765;SDS011;20984;43.508;1.504;2023-12-22T04:54:16;1.95;;;1.80;;
34765;SDS011;20984;43.508;1.504;2023-12-22T04:56:42;1.77;;;1.67;;
34765;SDS011;20984;43.508;1.504;2023-12-22T04:59:07;1.88;;;1.70;;
34765;SDS011;20984;43.508;1.504;2023-12-22T05:01:33;2.65;;;1.70;;
34765;SDS011;20984;43.508;1.504;2023-12-22T05:03:59;1.95;;;1.77;;
34765;SDS011;20984;43.508;1.504;2023-12-22T05:06:26;1.88;;;1.73;;
34765;SDS011;20984;43.508;1.504;2023-12-22T05:08:54;1.80;;;1.70;;
34765;SDS011;20984;43.508;1.504;2023-12-22T05:11:20;2.05;;;1.83;;
34765;SDS011;20984;43.508;1.504;2023-12-22T05:13:46;1.60;;;1.50;;
34765;SDS011;20984;43.508;1.504;2023-12-22T05:16:11;2.17;;;1.60;;
34765;SDS011;20984;43.508;1.504;2023-12-22T05:18:37;1.90;;;1.73;;
34765;SDS011;20984;43.508;1.504;2023-12-22T05:21:03;1.95;;;1.70;;
34765;SDS011;20984;43.508;1.504;2023-12-22T05:23:29;1.80;;;1.70;;
34765;SDS011;20984;43.508;1.504;2023-12-22T05:25:55;2.45;;;2.00;;
34765;SDS011;20984;43.508;1.504;2023-12-22T05:28:20;1.70;;;1.60;;
34765;SDS011;20984;43.508;1.504;2023-12-22T05:30:46;2.22;;;1.70;;
34765;SDS011;20984;43.508;1.504;2023-12-22T05:33:12;1.80;;;1.70;;
34765;SDS011;20984;43.508;1.504;2023-12-22T05:35:38;2.50;;;1.95;;
34765;SDS011;20984;43.508;1.504;2023-12-22T05:38:03;3.58;;;1.80;;
34765;SDS011;20984;43.508;1.504;2023-12-22T05:40:31;2.35;;;1.90;;
34765;SDS011;20984;43.508;1.504;2023-12-22T05:42:57;2.10;;;1.90;;
34765;SDS011;20984;43.508;1.504;2023-12-22T05:45:23;1.90;;;1.70;;
34765;SDS011;20984;43.508;1.504;2023-12-22T05:47:52;1.90;;;1.80;;
34765;SDS011;20984;43.508;1.504;2023-12-22T05:50:17;1.80;;;1.70;;
34765;SDS011;20984;43.508;1.504;2023-12-22T05:52:43;2.15;;;2.00;;
34765;SDS011;20984;43.508;1.504;2023-12-22T05:55:10;3.15;;;1.80;;
34765;SDS011;20984;43.508;1.504;2023-12-22T05:57:35;1.80;;;1.70;;
34765;SDS011;20984;43.508;1.504;2023-12-22T06:00:02;1.88;;;1.70;;
34765;SDS011;20984;43.508;1.504;2023-12-22T06:02:32;1.80;;;1.70;;
34765;SDS011;20984;43.508;1.504;2023-12-22T06:04:59;1.70;;;1.60;;
34765;SDS011;20984;43.508;1.504;2023-12-22T06:07:24;1.80;;;1.70;;
34765;SDS011;20984;43.508;1.504;2023-12-22T06:09:51;1.90;;;1.80;;
34765;SDS011;20984;43.508;1.504;2023-12-22T06:12:16;1.70;;;1.60;;
34765;SDS011;20984;43.508;1.504;2023-12-22T06:14:42;1.98;;;1.80;;
34765;SDS011;20984;43.508;1.504;2023-12-22T06:17:08;1.83;;;1.73;;
34765;SDS011;20984;43.508;1.504;2023-12-22T06:19:35;1.80;;;1.70;;
34765;SDS011;20984;43.508;1.504;2023-12-22T06:22:01;1.70;;;1.60;;
34765;SDS011;20984;43.508;1.504;2023-12-22T06:24:27;3.88;;;1.90;;
34765;SDS011;20984;43.508;1.504;2023-12-22T06:26:52;1.77;;;1.67;;
34765;SDS011;20984;43.508;1.504;2023-12-22T06:29:18;2.25;;;2.00;;
34765;SDS011;20984;43.508;1.504;2023-12-22T06:31:44;1.70;;;1.60;;
34765;SDS011;20984;43.508;1.504;2023-12-22T06:34:10;2.25;;;1.70;;
34765;SDS011;20984;43.508;1.504;2023-12-22T06:36:35;1.90;;;1.70;;
34765;SDS011;20984;43.508;1.504;2023-12-22T06:39:01;3.15;;;1.90;;
34765;SDS011;20984;43.508;1.504;2023-12-22T06:41:30;1.98;;;1.83;;
34765;SDS011;20984;43.508;1.504;2023-12-22T06:43:56;2.10;;;1.90;;
34765;SDS011;20984;43.508;1.504;2023-12-22T06:46:24;32.78;;;12.68;;
34765;SDS011;20984;43.508;1.504;2023-12-22T06:48:59;2.20;;;1.83;;
34765;SDS011;20984;43.508;1.504;2023-12-22T06:51:29;1.98;;;1.77;;
34765;SDS011;20984;43.508;1.504;2023-12-22T06:53:56;5.78;;;2.08;;
34765;SDS011;20984;43.508;1.504;2023-12-22T06:56:22;1.80;;;1.70;;
34765;SDS011;20984;43.508;1.504;2023-12-22T06:58:50;3.33;;;2.60;;
34765;SDS011;20984;43.508;1.504;2023-12-22T07:03:48;5.57;;;2.20;;
34765;SDS011;20984;43.508;1.504;2023-12-22T07:06:15;2.78;;;2.10;;
34765;SDS011;20984;43.508;1.504;2023-12-22T07:08:42;2.72;;;1.98;;
34765;SDS011;20984;43.508;1.504;2023-12-22T07:11:08;2.17;;;1.80;;
34765;SDS011;20984;43.508;1.504;2023-12-22T07:13:34;1.95;;;1.70;;
34765;SDS011;20984;43.508;1.504;2023-12-22T07:16:00;1.95;;;1.75;;
34765;SDS011;20984;43.508;1.504;2023-12-22T07:18:27;2.47;;;2.28;;
34765;SDS011;20984;43.508;1.504;2023-12-22T07:20:56;1.70;;;1.60;;
34765;SDS011;20984;43.508;1.504;2023-12-22T07:23:22;1.80;;;1.70;;
34765;SDS011;20984;43.508;1.504;2023-12-22T07:25:48;2.25;;;1.90;;
34765;SDS011;20984;43.508;1.504;2023-12-22T07:28:13;3.05;;;2.15;;
34765;SDS011;20984;43.508;1.504;2023-12-22T07:30:40;2.42;;;1.90;;
34765;SDS011;20984;43.508;1.504;2023-12-22T07:33:06;2.65;;;2.30;;
34765;SDS011;20984;43.508;1.504;2023-12-22T07:35:32;1.90;;;1.80;;
34765;SDS011;20984;43.508;1.504;2023-12-22T07:37:57;2.67;;;1.90;;
34765;SDS011;20984;43.508;1.504;2023-12-22T07:40:23;1.90;;;1.60;;
34765;SDS011;20984;43.508;1.504;2023-12-22T07:42:49;1.85;;;1.73;;
34765;SDS011;20984;43.508;1.504;2023-12-22T07:45:15;2.53;;;1.88;;
34765;SDS011;20984;43.508;1.504;2023-12-22T07:47:41;1.85;;;1.70;;
34765;SDS011;20984;43.508;1.504;2023-12-22T07:50:07;3.05;;;1.80;;
34765;SDS011;20984;43.508;1.504;2023-12-22T07:52:34;1.85;;;1.75;;
34765;SDS011;20984;43.508;1.504;2023-12-22T07:55:05;3.17;;;2.00;;
34765;SDS011;20984;43.508;1.504;2023-12-22T07:57:32;2.08;;;1.90;;
34765;SDS011;20984;43.508;1.504;2023-12-22T07:59:57;2.40;;;1.75;;
34765;SDS011;20984;43.508;1.504;2023-12-22T08:02:23;5.43;;;2.20;;
34765;SDS011;20984;43.508;1.504;2023-12-22T08:04:49;2.30;;;1.90;;
34765;SDS011;20984;43.508;1.504;2023-12-22T08:07:15;2.10;;;1.80;;
34765;SDS011;20984;43.508;1.504;2023-12-22T08:09:41;4.70;;;2.75;;
34765;SDS011;20984;43.508;1.504;2023-12-22T08:12:07;1.88;;;1.77;;
34765;SDS011;20984;43.508;1.504;2023-12-22T08:14:33;3.95;;;1.70;;
34765;SDS011;20984;43.508;1.504;2023-12-22T08:16:58;2.90;;;2.00;;
34765;SDS011;20984;43.508;1.504;2023-12-22T08:19:24;4.00;;;1.90;;
34765;SDS011;20984;43.508;1.504;2023-12-22T08:21:52;1.80;;;1.60;;
34765;SDS011;20984;43.508;1.504;2023-12-22T08:24:19;2.92;;;2.65;;
34765;SDS011;20984;43.508;1.504;2023-12-22T08:26:46;2.88;;;1.48;;
34765;SDS011;20984;43.508;1.504;2023-12-22T08:29:12;2.03;;;1.83;;
34765;SDS011;20984;43.508;1.504;2023-12-22T08:31:37;1.92;;;1.80;;
34765;SDS011;20984;43.508;1.504;2023-12-22T08:34:03;2.03;;;1.70;;
34765;SDS011;20984;43.508;1.504;2023-12-22T08:36:30;2.75;;;1.83;;
34765;SDS011;20984;43.508;1.504;2023-12-22T08:38:56;2.20;;;2.00;;
34765;SDS011;20984;43.508;1.504;2023-12-22T08:41:22;2.42;;;1.73;;
34765;SDS011;20984;43.508;1.504;2023-12-22T08:43:48;3.05;;;2.28;;
34765;SDS011;20984;43.508;1.504;2023-12-22T08:46:13;1.77;;;1.65;;
34765;SDS011;20984;43.508;1.504;2023-12-22T08:48:40;2.03;;;1.83;;
34765;SDS011;20984;43.508;1.504;2023-12-22T08:51:05;4.30;;;2.00;;
34765;SDS011;20984;43.508;1.504;2023-12-22T08:53:32;2.50;;;2.30;;
34765;SDS011;20984;43.508;1.504;2023-12-22T08:56:01;3.72;;;1.80;;
34765;SDS011;20984;43.508;1.504;2023-12-22T08:58:27;2.85;;;1.92;;
34765;SDS011;20984;43.508;1.504;2023-12-22T09:00:53;2.47;;;2.15;;
34765;SDS011;20984;43.508;1.504;2023-12-22T09:03:18;1.83;;;1.73;;
34765;SDS011;20984;43.508;1.504;2023-12-22T09:05:44;1.70;;;1.60;;
34765;SDS011;20984;43.508;1.504;2023-12-22T09:08:10;4.10;;;2.08;;
34765;SDS011;20984;43.508;1.504;2023-12-22T09:10:35;2.30;;;1.73;;
34765;SDS011;20984;43.508;1.504;2023-12-22T09:13:01;1.90;;;1.70;;
34765;SDS011;20984;43.508;1.504;2023-12-22T09:15:27;4.07;;;1.80;;
34765;SDS011;20984;43.508;1.504;2023-12-22T09:17:52;3.03;;;1.77;;
34765;SDS011;20984;43.508;1.504;2023-12-22T09:20:21;4.65;;;1.90;;
34765;SDS011;20984;43.508;1.504;2023-12-22T09:22:47;2.25;;;1.88;;
34765;SDS011;20984;43.508;1.504;2023-12-22T09:25:13;2.33;;;2.00;;
34765;SDS011;20984;43.508;1.504;2023-12-22T09:27:38;2.33;;;2.10;;
34765;SDS011;20984;43.508;1.504;2023-12-22T09:30:04;1.80;;;1.70;;
34765;SDS011;20984;43.508;1.504;2023-12-22T09:32:34;1.80;;;1.70;;
34765;SDS011;20984;43.508;1.504;2023-12-22T09:35:00;3.65;;;1.88;;
34765;SDS011;20984;43.508;1.504;2023-12-22T09:37:26;4.00;;;1.90;;
34765;SDS011;20984;43.508;1.504;2023-12-22T09:39:52;2.17;;;1.98;;
34765;SDS011;20984;43.508;1.504;2023-12-22T09:42:19;1.95;;;1.70;;
34765;SDS011;20984;43.508;1.504;2023-12-22T09:44:46;3.03;;;1.77;;
34765;SDS011;20984;43.508;1.504;2023-12-22T09:47:14;1.98;;;1.77;;
34765;SDS011;20984;43.508;1.504;2023-12-22T09:49:42;1.67;;;1.58;;
34765;SDS011;20984;43.508;1.504;2023-12-22T09:52:09;1.92;;;1.77;;
34765;SDS011;20984;43.508;1.504;2023-12-22T09:54:36;1.83;;;1.60;;
34765;SDS011;20984;43.508;1.504;2023-12-22T09:57:02;3.22;;;1.90;;
34765;SDS011;20984;43.508;1.504;2023-12-22T09:59:29;1.60;;;1.50;;
34765;SDS011;20984;43.508;1.504;2023-12-22T10:01:56;2.35;;;1.70;;
34765;SDS011;20984;43.508;1.504;2023-12-22T10:04:24;1.65;;;1.55;;
34765;SDS011;20984;43.508;1.504;2023-12-22T10:06:50;1.70;;;1.60;;
34765;SDS011;20984;43.508;1.504;2023-12-22T10:09:18;1.73;;;1.60;;
34765;SDS011;20984;43.508;1.504;2023-12-22T10:11:44;1.70;;;1.60;;
34765;SDS011;20984;43.508;1.504;2023-12-22T10:14:14;3.33;;;1.80;;
34765;SDS011;20984;43.508;1.504;2023-12-22T10:16:47;1.70;;;1.60;;
34765;SDS011;20984;43.508;1.504;2023-12-22T10:19:14;1.75;;;1.65;;
34765;SDS011;20984;43.508;1.504;2023-12-22T10:21:39;1.83;;;1.63;;
34765;SDS011;20984;43.508;1.504;2023-12-22T10:24:05;1.80;;;1.50;;
34765;SDS011;20984;43.508;1.504;2023-12-22T10:26:31;2.20;;;1.90;;
34765;SDS011;20984;43.508;1.504;2023-12-22T10:28:56;2.75;;;1.90;;
34765;SDS011;20984;43.508;1.504;2023-12-22T10:31:22;2.25;;;2.00;;
34765;SDS011;20984;43.508;1.504;2023-12-22T10:33:47;2.67;;;2.08;;
34765;SDS011;20984;43.508;1.504;2023-12-22T10:36:13;3.33;;;1.73;;
34765;SDS011;20984;43.508;1.504;2023-12-22T10:38:39;2.08;;;1.90;;
34765;SDS011;20984;43.508;1.504;2023-12-22T10:41:05;2.65;;;1.85;;
34765;SDS011;20984;43.508;1.504;2023-12-22T10:43:40;2.20;;;2.00;;
34765;SDS011;20984;43.508;1.504;2023-12-22T10:46:06;2.10;;;1.90;;
34765;SDS011;20984;43.508;1.504;2023-12-22T10:48:36;2.10;;;1.90;;
34765;SDS011;20984;43.508;1.504;2023-12-22T10:51:01;2.13;;;1.75;;
34765;SDS011;20984;43.508;1.504;2023-12-22T10:53:27;2.20;;;2.00;;
34765;SDS011;20984;43.508;1.504;2023-12-22T10:55:53;1.80;;;1.70;;
34765;SDS011;20984;43.508;1.504;2023-12-22T10:58:19;2.45;;;2.05;;
34765;SDS011;20984;43.508;1.504;2023-12-22T11:00:46;2.53;;;2.22;;
34765;SDS011;20984;43.508;1.504;2023-12-22T11:03:16;2.20;;;2.00;;
34765;SDS011;20984;43.508;1.504;2023-12-22T11:05:45;3.33;;;1.70;;
34765;SDS011;20984;43.508;1.504;2023-12-22T11:08:13;1.85;;;1.70;;
34765;SDS011;20984;43.508;1.504;2023-12-22T11:10:41;4.55;;;2.40;;
34765;SDS011;20984;43.508;1.504;2023-12-22T11:13:12;2.58;;;2.17;;
34765;SDS011;20984;43.508;1.504;2023-12-22T11:15:39;4.38;;;2.08;;
34765;SDS011;20984;43.508;1.504;2023-12-22T11:18:06;2.70;;;2.28;;
34765;SDS011;20984;43.508;1.504;2023-12-22T11:20:33;2.35;;;1.98;;
34765;SDS011;20984;43.508;1.504;2023-12-22T11:23:01;3.28;;;1.98;;
34765;SDS011;20984;43.508;1.504;2023-12-22T11:25:28;3.38;;;1.80;;
34765;SDS011;20984;43.508;1.504;2023-12-22T11:27:56;2.20;;;2.00;;
34765;SDS011;20984;43.508;1.504;2023-12-22T11:30:25;2.38;;;1.90;;
34765;SDS011;20984;43.508;1.504;2023-12-22T11:32:53;3.10;;;1.70;;
34765;SDS011;20984;43.508;1.504;2023-12-22T11:35:20;3.65;;;2.25;;
34765;SDS011;20984;43.508;1.504;2023-12-22T11:37:49;2.17;;;1.98;;
34765;SDS011;20984;43.508;1.504;2023-12-22T11:40:14;2.00;;;1.80;;
34765;SDS011;20984;43.508;1.504;2023-12-22T11:42:41;3.83;;;2.95;;
34765;SDS011;20984;43.508;1.504;2023-12-22T11:45:12;1.98;;;1.83;;
34765;SDS011;20984;43.508;1.504;2023-12-22T11:47:40;3.85;;;2.65;;
34765;SDS011;20984;43.508;1.504;2023-12-22T11:50:09;5.90;;;1.90;;
34765;SDS011;20984;43.508;1.504;2023-12-22T11:52:35;5.88;;;2.33;;
34765;SDS011;20984;43.508;1.504;2023-12-22T11:55:01;2.65;;;2.25;;
34765;SDS011;20984;43.508;1.504;2023-12-22T11:59:56;13.43;;;5.20;;
34765;SDS011;20984;43.508;1.504;2023-12-22T12:02:26;4.43;;;2.22;;
34765;SDS011;20984;43.508;1.504;2023-12-22T12:04:52;3.33;;;1.88;;
34765;SDS011;20984;43.508;1.504;2023-12-22T12:07:38;3.42;;;2.20;;
34765;SDS011;20984;43.508;1.504;2023-12-22T12:13:07;3.10;;;2.50;;
34765;SDS011;20984;43.508;1.504;2023-12-22T12:15:34;1.92;;;1.83;;
34765;SDS011;20984;43.508;1.504;2023-12-22T12:18:01;3.03;;;2.00;;
34765;SDS011;20984;43.508;1.504;2023-12-22T12:20:28;2.78;;;2.10;;
34765;SDS011;20984;43.508;1.504;2023-12-22T12:22:54;5.68;;;2.33;;
34765;SDS011;20984;43.508;1.504;2023-12-22T12:25:23;1.75;;;1.65;;
34765;SDS011;20984;43.508;1.504;2023-12-22T12:28:02;2.70;;;1.98;;
34765;SDS011;20984;43.508;1.504;2023-12-22T12:30:28;2.50;;;2.08;;
34765;SDS011;20984;43.508;1.504;2023-12-22T12:32:53;2.00;;;1.80;;
34765;SDS011;20984;43.508;1.504;2023-12-22T12:35:19;3.05;;;1.80;;
34765;SDS011;20984;43.508;1.504;2023-12-22T12:37:48;2.83;;;2.00;;
34765;SDS011;20984;43.508;1.504;2023-12-22T12:40:16;3.97;;;2.03;;
34765;SDS011;20984;43.508;1.504;2023-12-22T12:42:45;3.93;;;2.20;;
34765;SDS011;20984;43.508;1.504;2023-12-22T12:45:12;3.97;;;2.30;;
34765;SDS011;20984;43.508;1.504;2023-12-22T12:47:37;2.53;;;2.00;;
34765;SDS011;20984;43.508;1.504;2023-12-22T12:50:03;3.60;;;1.90;;
34765;SDS011;20984;43.508;1.504;2023-12-22T12:52:29;3.25;;;1.88;;
34765;SDS011;20984;43.508;1.504;2023-12-22T12:54:55;1.90;;;1.80;;
34765;SDS011;20984;43.508;1.504;2023-12-22T12:57:23;4.60;;;2.35;;
34765;SDS011;20984;43.508;1.504;2023-12-22T12:59:49;2.85;;;1.98;;
34765;SDS011;20984;43.508;1.504;2023-12-22T13:02:19;2.88;;;2.00;;
34765;SDS011;20984;43.508;1.504;2023-12-22T13:04:46;2.15;;;1.95;;
34765;SDS011;20984;43.508;1.504;2023-12-22T13:07:12;5.68;;;3.42;;
34765;SDS011;20984;43.508;1.504;2023-12-22T13:09:38;3.95;;;3.10;;
34765;SDS011;20984;43.508;1.504;2023-12-22T13:12:04;2.20;;;2.00;;
34765;SDS011;20984;43.508;1.504;2023-12-22T13:14:30;2.50;;;2.20;;
34765;SDS011;20984;43.508;1.504;2023-12-22T13:16:56;2.90;;;2.10;;
34765;SDS011;20984;43.508;1.504;2023-12-22T13:19:23;4.75;;;2.17;;
34765;SDS011;20984;43.508;1.504;2023-12-22T13:21:55;4.22;;;2.25;;
34765;SDS011;20984;43.508;1.504;2023-12-22T13:24:21;3.65;;;2.00;;
34765;SDS011;20984;43.508;1.504;2023-12-22T13:26:58;3.33;;;2.10;;
34765;SDS011;20984;43.508;1.504;2023-12-22T13:29:28;2.78;;;2.28;;
34765;SDS011;20984;43.508;1.504;2023-12-22T13:31:54;4.03;;;1.90;;
34765;SDS011;20984;43.508;1.504;2023-12-22T13:34:22;3.05;;;2.75;;
34765;SDS011;20984;43.508;1.504;2023-12-22T13:36:47;2.88;;;2.00;;
34765;SDS011;20984;43.508;1.504;2023-12-22T13:39:13;2.22;;;1.80;;
34765;SDS011;20984;43.508;1.504;2023-12-22T13:41:40;2.13;;;1.92;;
34765;SDS011;20984;43.508;1.504;2023-12-22T13:44:10;3.83;;;2.00;;
34765;SDS011;20984;43.508;1.504;2023-12-22T13:46:39;1.92;;;1.83;;
34765;SDS011;20984;43.508;1.504;2023-12-22T13:49:07;2.20;;;2.00;;
34765;SDS011;20984;43.508;1.504;2023-12-22T13:51:38;2.00;;;1.80;;
34765;SDS011;20984;43.508;1.504;2023-12-22T13:54:04;1.90;;;1.75;;
34765;SDS011;20984;43.508;1.504;2023-12-22T13:56:36;2.33;;;2.03;;
34765;SDS011;20984;43.508;1.504;2023-12-22T13:59:05;2.17;;;1.90;;
34765;SDS011;20984;43.508;1.504;2023-12-22T14:01:31;2.67;;;2.08;;
34765;SDS011;20984;43.508;1.504;2023-12-22T14:03:57;4.35;;;2.42;;
34765;SDS011;20984;43.508;1.504;2023-12-22T14:06:26;3.03;;;2.05;;
34765;SDS011;20984;43.508;1.504;2023-12-22T14:08:55;6.70;;;2.17;;
34765;SDS011;20984;43.508;1.504;2023-12-22T14:11:21;4.07;;;1.90;;
34765;SDS011;20984;43.508;1.504;2023-12-22T14:13:47;2.65;;;2.05;;
34765;SDS011;20984;43.508;1.504;2023-12-22T14:16:14;2.08;;;1.88;;
34765;SDS011;20984;43.508;1.504;2023-12-22T14:18:42;4.07;;;2.08;;
34765;SDS011;20984;43.508;1.504;2023-12-22T14:21:08;5.30;;;2.20;;
34765;SDS011;20984;43.508;1.504;2023-12-22T14:23:34;5.53;;;1.98;;
34765;SDS011;20984;43.508;1.504;2023-12-22T14:26:00;3.72;;;2.17;;
34765;SDS011;20984;43.508;1.504;2023-12-22T14:28:25;3.67;;;2.20;;
34765;SDS011;20984;43.508;1.504;2023-12-22T14:30:52;3.50;;;2.30;;
34765;SDS011;20984;43.508;1.504;2023-12-22T14:33:18;2.38;;;1.95;;
34765;SDS011;20984;43.508;1.504;2023-12-22T14:35:44;3.95;;;2.53;;
34765;SDS011;20984;43.508;1.504;2023-12-22T14:38:09;2.53;;;2.20;;
34765;SDS011;20984;43.508;1.504;2023-12-22T14:40:35;2.97;;;2.60;;
34765;SDS011;20984;43.508;1.504;2023-12-22T14:43:00;3.97;;;2.60;;
34765;SDS011;20984;43.508;1.504;2023-12-22T14:45:27;6.07;;;4.00;;
34765;SDS011;20984;43.508;1.504;2023-12-22T14:47:53;3.35;;;2.40;;
34765;SDS011;20984;43.508;1.504;2023-12-22T14:50:19;4.70;;;2.30;;